createdAt,value
2023-05-14T00:04:08.488Z,63.19
2023-05-14T00:09:11.511Z,63.53
2023-05-14T00:14:14.474Z,63.98
2023-05-14T00:19:18.017Z,63.84
2023-05-14T00:24:22.363Z,63.95
2023-05-14T00:29:25.396Z,64.72
2023-05-14T00:34:28.390Z,64.84
2023-05-14T00:39:31.453Z,64.67
2023-05-14T00:44:34.546Z,64.85
2023-05-14T00:49:40.260Z,65.48
2023-05-14T00:54:43.515Z,65.30
2023-05-14T00:59:46.667Z,65.38
2023-05-14T01:04:50.167Z,65.72
2023-05-14T01:10:04.387Z,66.26
2023-05-14T01:15:30.441Z,66.10
2023-05-14T01:20:33.906Z,66.91
2023-05-14T01:25:37.748Z,67.21
2023-05-14T01:30:46.506Z,67.08
2023-05-14T01:35:51.153Z,67.61
2023-05-14T01:40:55.772Z,67.07
2023-05-14T01:45:59.165Z,67.36
2023-05-14T01:51:02.928Z,68.07
2023-05-14T01:56:06.140Z,67.66
2023-05-14T02:01:09.391Z,67.07
2023-05-14T02:06:12.315Z,66.92
2023-05-14T02:11:15.419Z,66.26
2023-05-14T02:16:19.564Z,66.50
2023-05-14T02:21:22.622Z,66.28
2023-05-14T02:26:26.022Z,65.49
2023-05-14T02:31:29.096Z,65.12
2023-05-14T02:36:32.818Z,64.61
2023-05-14T02:41:35.835Z,65.05
2023-05-14T02:46:38.952Z,63.61
2023-05-14T02:51:42.263Z,62.23
2023-05-14T02:56:45.293Z,61.46
2023-05-14T03:01:48.295Z,60.48
2023-05-14T03:06:51.843Z,60.03
2023-05-14T03:11:55.434Z,59.33
2023-05-14T03:16:58.917Z,58.81
2023-05-14T03:22:02.333Z,58.10
2023-05-14T03:27:05.643Z,56.52
2023-05-14T03:32:08.726Z,55.47
2023-05-14T03:37:11.869Z,53.65
2023-05-14T03:42:14.797Z,53.52
2023-05-14T03:47:17.763Z,52.32
2023-05-14T03:52:21.012Z,50.93
2023-05-14T03:57:24.097Z,48.06
2023-05-14T04:02:27.163Z,47.02
2023-05-14T04:07:31.807Z,44.67
2023-05-14T04:12:34.881Z,42.17
2023-05-14T04:17:38.894Z,41.45
2023-05-14T04:22:41.911Z,39.36
2023-05-14T04:27:44.914Z,39.03
2023-05-14T04:32:47.989Z,37.96
2023-05-14T04:37:51.002Z,36.11
2023-05-14T04:42:53.998Z,35.03
2023-05-14T04:47:57.041Z,34.14
2023-05-14T04:53:00.006Z,32.52
2023-05-14T04:58:03.294Z,32.36
2023-05-14T05:03:06.455Z,31.57
2023-05-14T05:08:09.606Z,30.56
2023-05-14T05:13:12.570Z,30.05
2023-05-14T05:18:15.744Z,29.60
2023-05-14T05:23:18.765Z,27.27
2023-05-14T05:28:21.760Z,27.00
2023-05-14T05:33:24.751Z,26.67
2023-05-14T05:38:27.733Z,24.85
2023-05-14T05:43:30.732Z,23.91
2023-05-14T05:48:33.790Z,23.04
2023-05-14T05:53:36.809Z,23.06
2023-05-14T05:58:39.751Z,23.55
2023-05-14T06:03:42.822Z,22.68
2023-05-14T06:08:45.912Z,22.39
2023-05-14T06:13:48.894Z,22.30
2023-05-14T06:18:53.082Z,22.32
2023-05-14T06:23:56.073Z,22.36
2023-05-14T06:28:59.572Z,21.87
2023-05-14T06:34:02.643Z,21.55
2023-05-14T06:39:05.752Z,20.93
2023-05-14T06:44:08.750Z,20.78
2023-05-14T06:49:12.014Z,21.46
2023-05-14T06:54:15.330Z,21.50
2023-05-14T06:59:18.346Z,22.21
2023-05-14T07:04:21.376Z,22.49
2023-05-14T07:09:24.482Z,22.20
2023-05-14T07:14:27.428Z,20.87
2023-05-14T07:19:30.525Z,21.29
2023-05-14T07:24:33.563Z,21.06
2023-05-14T07:29:36.661Z,21.35
2023-05-14T07:34:39.687Z,21.03
2023-05-14T07:39:42.652Z,21.52
2023-05-14T07:44:46.295Z,20.69
2023-05-14T07:49:49.295Z,21.69
2023-05-14T07:54:52.456Z,22.65
2023-05-14T07:59:55.528Z,22.41
2023-05-14T08:04:58.688Z,22.54
2023-05-14T08:10:01.996Z,23.28
2023-05-14T08:15:08.689Z,23.37
2023-05-14T08:20:12.366Z,23.53
2023-05-14T08:25:15.509Z,23.73
2023-05-14T08:30:18.565Z,23.61
2023-05-14T08:35:21.642Z,23.32
2023-05-14T08:40:24.847Z,23.64
2023-05-14T08:45:34.517Z,23.98
2023-05-14T08:50:37.758Z,23.81
2023-05-14T08:55:41.000Z,23.56
2023-05-14T09:00:43.983Z,23.54
2023-05-14T09:05:48.770Z,23.94
2023-05-14T09:10:51.860Z,23.84
2023-05-14T09:15:55.816Z,24.00
2023-05-14T09:20:58.860Z,24.18
2023-05-14T09:26:06.250Z,23.29
2023-05-14T09:31:10.016Z,23.76
2023-05-14T09:36:13.299Z,23.74
2023-05-14T09:41:16.662Z,23.61
2023-05-14T09:46:19.649Z,24.29
2023-05-14T09:51:22.768Z,24.49
2023-05-14T09:56:25.825Z,24.30
2023-05-14T10:01:35.382Z,24.54
2023-05-14T10:06:39.635Z,23.96
2023-05-14T10:11:53.087Z,23.98
2023-05-14T10:16:59.791Z,23.75
2023-05-14T10:22:08.481Z,23.94
2023-05-14T10:27:11.862Z,24.15
2023-05-14T10:32:15.188Z,23.66
2023-05-14T10:37:21.226Z,23.76
2023-05-14T10:42:27.777Z,24.59
2023-05-14T10:47:32.287Z,24.64
2023-05-14T10:52:35.770Z,24.33
2023-05-14T10:57:40.891Z,23.90
2023-05-14T11:02:45.219Z,23.15
2023-05-14T11:07:49.853Z,23.14
2023-05-14T11:12:53.159Z,23.40
2023-05-14T11:17:56.197Z,22.84
2023-05-14T11:22:59.216Z,22.80
2023-05-14T11:28:02.360Z,23.33
2023-05-14T11:33:05.493Z,24.46
2023-05-14T11:38:09.344Z,26.06
2023-05-14T11:43:12.585Z,26.20
2023-05-14T11:48:15.631Z,25.38
2023-05-14T11:53:20.405Z,24.50
2023-05-14T11:58:23.514Z,23.87
2023-05-14T12:03:30.170Z,24.28
2023-05-14T12:08:33.428Z,24.39
2023-05-14T12:13:37.210Z,24.29
2023-05-14T12:18:40.435Z,24.15
2023-05-14T12:23:43.391Z,23.39
2023-05-14T12:28:48.322Z,22.99
2023-05-14T12:33:51.603Z,23.97
2023-05-14T12:39:04.389Z,24.92
2023-05-14T12:44:07.454Z,24.77
2023-05-14T12:49:11.182Z,25.17
2023-05-14T12:54:16.129Z,24.82
2023-05-14T12:59:19.160Z,25.62
2023-05-14T13:04:22.185Z,25.70
2023-05-14T13:09:25.147Z,26.53
2023-05-14T13:14:28.186Z,26.23
2023-05-14T13:19:31.280Z,25.61
2023-05-14T13:24:35.071Z,26.15
2023-05-14T13:29:38.134Z,26.29
2023-05-14T13:34:41.144Z,26.49
2023-05-14T13:39:44.120Z,26.27
2023-05-14T13:44:47.128Z,26.55
2023-05-14T13:49:50.166Z,26.94
2023-05-14T13:54:56.752Z,26.54
2023-05-14T13:59:59.781Z,27.00
2023-05-14T14:05:02.860Z,25.50
2023-05-14T14:10:08.381Z,25.12
2023-05-14T14:15:11.996Z,27.44
2023-05-14T14:20:15.047Z,28.83
2023-05-14T14:25:18.155Z,29.07
2023-05-14T14:30:21.213Z,29.54
2023-05-14T14:35:24.478Z,30.25
2023-05-14T14:40:27.783Z,30.25
2023-05-14T14:45:30.970Z,30.22
2023-05-14T14:50:34.042Z,31.12
2023-05-14T14:55:37.072Z,31.29
2023-05-14T15:00:40.620Z,31.46
2023-05-14T15:05:43.708Z,31.84
2023-05-14T15:10:47.078Z,32.34
2023-05-14T15:15:52.025Z,32.85
2023-05-14T15:20:57.027Z,33.31
2023-05-14T15:26:00.085Z,33.19
2023-05-14T15:31:03.587Z,33.36
2023-05-14T15:36:06.955Z,33.06
2023-05-14T15:41:10.176Z,34.29
2023-05-14T15:46:13.662Z,34.27
2023-05-14T15:51:16.862Z,34.83
2023-05-14T15:56:20.285Z,35.38
2023-05-14T16:01:23.397Z,35.54
2023-05-14T16:06:26.556Z,36.16
2023-05-14T16:11:30.668Z,36.82
2023-05-14T16:16:33.772Z,37.48
2023-05-14T16:21:36.844Z,37.98
2023-05-14T16:26:40.485Z,38.43
2023-05-14T16:31:43.696Z,39.19
2023-05-14T16:36:46.764Z,39.83
2023-05-14T16:41:49.679Z,40.86
2023-05-14T16:46:52.634Z,41.24
2023-05-14T16:51:55.633Z,42.12
2023-05-14T16:56:58.662Z,42.23
2023-05-14T17:02:01.737Z,42.81
2023-05-14T17:07:05.872Z,43.18
2023-05-14T17:12:09.964Z,43.77
2023-05-14T17:17:12.971Z,44.45
2023-05-14T17:22:16.134Z,44.89
2023-05-14T17:27:19.129Z,45.31
2023-05-14T17:32:22.320Z,45.83
2023-05-14T17:37:26.729Z,46.62
2023-05-14T17:42:29.734Z,47.33
2023-05-14T17:47:32.826Z,48.22
2023-05-14T17:52:35.924Z,48.80
2023-05-14T17:57:38.937Z,48.62
2023-05-14T18:02:42.009Z,48.94
2023-05-14T18:07:45.069Z,49.75
2023-05-14T18:12:48.046Z,49.95
2023-05-14T18:17:51.794Z,50.10
2023-05-14T18:22:54.774Z,50.52
2023-05-14T18:27:57.730Z,50.93
2023-05-14T18:33:00.957Z,51.34
2023-05-14T18:38:04.140Z,52.08
2023-05-14T18:43:07.379Z,52.16
2023-05-14T18:48:10.780Z,52.07
2023-05-14T18:53:13.879Z,52.06
2023-05-14T18:58:17.876Z,52.45
2023-05-14T19:03:21.019Z,50.98
2023-05-14T19:08:24.170Z,52.04
2023-05-14T19:13:28.811Z,52.11
2023-05-14T19:18:32.030Z,52.35
2023-05-14T19:23:35.018Z,52.40
2023-05-14T19:28:40.954Z,52.88
2023-05-14T19:33:43.998Z,52.95
2023-05-14T19:38:47.592Z,53.34
2023-05-14T19:43:50.530Z,53.85
2023-05-14T19:48:53.514Z,54.49
2023-05-14T19:53:56.575Z,54.45
2023-05-14T19:58:59.572Z,55.37
2023-05-14T20:04:02.739Z,55.41
2023-05-14T20:09:06.196Z,55.55
2023-05-14T20:14:09.123Z,56.55
2023-05-14T20:19:12.305Z,57.03
2023-05-14T20:24:15.286Z,57.13
2023-05-14T20:29:18.283Z,57.19
2023-05-14T20:34:21.396Z,57.70
2023-05-14T20:39:24.477Z,57.21
2023-05-14T20:44:27.517Z,57.59
2023-05-14T20:49:30.669Z,56.86
2023-05-14T20:54:36.917Z,56.12
2023-05-14T20:59:39.908Z,55.89
2023-05-14T21:04:43.146Z,55.59
2023-05-14T21:09:51.074Z,55.94
2023-05-14T21:14:54.202Z,55.00
2023-05-14T21:19:57.299Z,55.06
2023-05-14T21:25:00.379Z,54.57
2023-05-14T21:30:03.635Z,54.54
2023-05-14T21:35:09.112Z,54.51
2023-05-14T21:40:12.754Z,54.58
2023-05-14T21:45:15.852Z,54.60
2023-05-14T21:50:19.035Z,54.84
2023-05-14T21:55:22.161Z,55.38
2023-05-14T22:00:25.643Z,56.14
2023-05-14T22:05:29.440Z,56.05
2023-05-14T22:10:32.634Z,56.43
2023-05-14T22:15:35.793Z,56.76
2023-05-14T22:20:39.423Z,56.56
2023-05-14T22:25:42.721Z,56.20
2023-05-14T22:30:45.766Z,56.03
2023-05-14T22:35:48.792Z,56.64
2023-05-14T22:40:52.197Z,55.97
2023-05-14T22:45:55.246Z,55.47
2023-05-14T22:50:58.279Z,55.12
2023-05-14T22:56:01.315Z,55.12
2023-05-14T23:01:04.384Z,54.46
2023-05-14T23:06:07.618Z,54.37
2023-05-14T23:11:10.640Z,54.27
2023-05-14T23:16:13.850Z,53.28
2023-05-14T23:21:16.894Z,52.75
2023-05-14T23:26:19.845Z,52.96
2023-05-14T23:31:22.809Z,53.24
2023-05-14T23:36:25.838Z,53.54
2023-05-14T23:41:28.857Z,54.04
2023-05-14T23:46:32.121Z,54.20
2023-05-14T23:51:35.138Z,55.34
2023-05-14T23:56:38.237Z,56.22
